createdAt,value
2023-10-14T00:00:15.328Z,5.77
2023-10-14T00:01:17.337Z,5.77
2023-10-14T00:02:19.360Z,5.72
2023-10-14T00:03:21.257Z,5.66
2023-10-14T00:04:23.327Z,5.69
2023-10-14T00:05:25.584Z,5.71
2023-10-14T00:06:28.144Z,5.71
2023-10-14T00:07:30.147Z,5.63
2023-10-14T00:08:38.282Z,5.65
2023-10-14T00:09:40.267Z,5.61
2023-10-14T00:10:44.422Z,5.61
2023-10-14T00:11:46.386Z,5.60
2023-10-14T00:12:48.869Z,5.70
2023-10-14T00:13:50.951Z,5.53
2023-10-14T00:14:52.964Z,5.59
2023-10-14T00:15:54.927Z,5.55
2023-10-14T00:16:57.195Z,5.65
2023-10-14T00:17:59.346Z,5.74
2023-10-14T00:19:03.715Z,5.79
2023-10-14T00:20:07.543Z,5.75
2023-10-14T00:21:12.267Z,5.75
2023-10-14T00:22:14.242Z,5.75
2023-10-14T00:23:16.368Z,5.72
2023-10-14T00:24:19.672Z,5.73
2023-10-14T00:25:23.206Z,5.76
2023-10-14T00:26:28.001Z,5.79
2023-10-14T00:27:29.996Z,5.77
2023-10-14T00:28:31.946Z,5.77
2023-10-14T00:29:36.907Z,5.78
2023-10-14T00:30:39.627Z,5.67
2023-10-14T00:31:43.074Z,5.69
2023-10-14T00:32:45.229Z,5.65
2023-10-14T00:33:47.389Z,5.47
2023-10-14T00:34:49.588Z,5.56
2023-10-14T00:35:52.416Z,5.53
2023-10-14T00:36:54.577Z,5.57
2023-10-14T00:37:56.713Z,5.53
2023-10-14T00:38:58.933Z,5.43
2023-10-14T00:40:00.843Z,5.43
2023-10-14T00:41:02.842Z,5.36
2023-10-14T00:42:05.743Z,5.40
2023-10-14T00:43:07.835Z,5.45
2023-10-14T00:44:13.247Z,5.40
2023-10-14T00:45:15.268Z,5.34
2023-10-14T00:46:18.305Z,5.37
2023-10-14T00:47:20.814Z,5.47
2023-10-14T00:48:22.899Z,5.41
2023-10-14T00:49:26.311Z,5.45
2023-10-14T00:50:28.654Z,5.48
2023-10-14T00:51:32.236Z,5.50
2023-10-14T00:52:34.244Z,5.47
2023-10-14T00:53:41.198Z,5.47
2023-10-14T00:54:45.381Z,5.46
2023-10-14T00:55:48.820Z,5.48
2023-10-14T00:56:51.290Z,5.46
2023-10-14T00:57:53.731Z,5.51
2023-10-14T00:59:00.489Z,5.55
2023-10-14T01:00:03.208Z,5.51
2023-10-14T01:01:05.267Z,5.51
2023-10-14T01:02:10.904Z,5.43
2023-10-14T01:04:25.441Z,5.52
2023-10-14T01:05:27.705Z,5.48
2023-10-14T01:06:30.113Z,5.55
2023-10-14T01:07:32.042Z,5.54
2023-10-14T01:08:34.384Z,5.62
2023-10-14T01:09:36.292Z,5.58
2023-10-14T01:10:38.739Z,5.60
2023-10-14T01:11:40.665Z,5.61
2023-10-14T01:12:42.756Z,5.63
2023-10-14T01:13:45.201Z,5.66
2023-10-14T01:14:48.843Z,5.66
2023-10-14T01:15:52.163Z,5.62
2023-10-14T01:16:54.526Z,5.65
2023-10-14T01:17:56.844Z,5.65
2023-10-14T01:18:58.942Z,5.65
2023-10-14T01:20:02.974Z,5.65
2023-10-14T01:21:06.317Z,5.63
2023-10-14T01:22:11.725Z,5.55
2023-10-14T01:23:13.973Z,5.59
2023-10-14T01:24:18.013Z,5.62
2023-10-14T01:25:20.106Z,5.61
2023-10-14T01:26:22.193Z,5.59
2023-10-14T01:27:24.516Z,5.61
2023-10-14T01:28:26.594Z,5.58
2023-10-14T01:29:28.483Z,5.58
2023-10-14T01:30:30.550Z,5.53
2023-10-14T01:32:01.563Z,5.54
2023-10-14T01:33:04.829Z,5.53
2023-10-14T01:34:07.493Z,5.55
2023-10-14T01:35:09.940Z,5.64
2023-10-14T01:36:12.183Z,5.74
2023-10-14T01:37:14.348Z,5.82
2023-10-14T01:38:16.425Z,5.89
2023-10-14T01:39:18.594Z,5.89
2023-10-14T01:40:25.024Z,5.94
2023-10-14T01:41:27.314Z,5.99
2023-10-14T01:42:29.422Z,5.95
2023-10-14T01:43:31.442Z,5.98
2023-10-14T01:44:33.334Z,5.96
2023-10-14T01:45:37.491Z,5.96
2023-10-14T01:46:39.871Z,5.92
2023-10-14T01:47:41.925Z,5.92
2023-10-14T01:48:45.357Z,5.93
2023-10-14T01:49:47.532Z,5.88
2023-10-14T01:50:51.532Z,5.93
2023-10-14T01:51:53.487Z,5.87
2023-10-14T01:52:55.567Z,5.85
2023-10-14T01:53:57.649Z,5.66
2023-10-14T01:54:59.808Z,5.53
2023-10-14T01:56:03.282Z,5.60
2023-10-14T01:57:05.591Z,5.56
2023-10-14T01:58:08.748Z,5.53
2023-10-14T01:59:10.902Z,5.61
2023-10-14T02:00:13.983Z,5.52
2023-10-14T02:01:16.599Z,5.59
2023-10-14T02:02:18.930Z,5.63
2023-10-14T02:03:22.092Z,5.51
2023-10-14T02:04:24.749Z,5.55
2023-10-14T02:05:27.481Z,5.55
2023-10-14T02:06:30.415Z,5.57
2023-10-14T02:07:32.569Z,5.37
2023-10-14T02:08:34.649Z,5.46
2023-10-14T02:09:36.585Z,5.50
2023-10-14T02:10:38.717Z,5.48
2023-10-14T02:11:40.757Z,5.54
2023-10-14T02:12:42.802Z,5.52
2023-10-14T02:13:44.941Z,5.53
2023-10-14T02:14:46.898Z,5.53
2023-10-14T02:15:50.195Z,5.53
2023-10-14T02:16:52.520Z,5.58
2023-10-14T02:17:54.668Z,5.51
2023-10-14T02:18:57.291Z,5.63
2023-10-14T02:19:59.533Z,5.64
2023-10-14T02:21:01.568Z,5.58
2023-10-14T02:22:05.069Z,5.58
2023-10-14T02:23:07.262Z,5.54
2023-10-14T02:24:09.931Z,5.55
2023-10-14T02:25:12.036Z,5.39
2023-10-14T02:26:20.479Z,5.36
2023-10-14T02:27:22.654Z,5.39
2023-10-14T02:28:26.221Z,5.48
2023-10-14T02:29:28.296Z,5.48
2023-10-14T02:30:30.631Z,5.50
2023-10-14T02:31:33.787Z,5.47
2023-10-14T02:32:35.861Z,5.43
2023-10-14T02:33:37.908Z,5.29
2023-10-14T02:34:41.352Z,5.44
2023-10-14T02:35:43.605Z,5.51
2023-10-14T02:36:45.839Z,5.50
2023-10-14T02:37:47.994Z,5.50
2023-10-14T02:38:50.032Z,5.44
2023-10-14T02:39:52.141Z,5.35
2023-10-14T02:40:54.842Z,5.41
2023-10-14T02:41:56.857Z,5.45
2023-10-14T02:42:59.199Z,5.50
2023-10-14T02:44:01.273Z,5.36
2023-10-14T02:45:03.545Z,5.24
2023-10-14T02:46:05.825Z,5.37
2023-10-14T02:47:08.270Z,5.42
2023-10-14T02:48:10.337Z,5.48
2023-10-14T02:49:14.638Z,5.51
2023-10-14T02:50:17.435Z,5.56
2023-10-14T02:51:24.120Z,5.58
2023-10-14T02:52:26.191Z,5.54
2023-10-14T02:53:28.136Z,5.54
2023-10-14T02:54:30.877Z,5.59
2023-10-14T02:55:34.925Z,5.55
2023-10-14T02:56:38.287Z,5.53
2023-10-14T02:57:40.337Z,5.55
2023-10-14T02:58:42.543Z,5.55
2023-10-14T02:59:45.178Z,5.54
2023-10-14T03:00:48.485Z,5.56
2023-10-14T03:01:50.730Z,5.52
2023-10-14T03:02:52.800Z,5.54
2023-10-14T03:03:55.288Z,5.53
2023-10-14T03:04:58.694Z,5.59
2023-10-14T03:06:01.520Z,5.63
2023-10-14T03:07:03.560Z,5.64
2023-10-14T03:08:05.910Z,5.62
2023-10-14T03:09:07.838Z,5.65
2023-10-14T03:10:12.217Z,5.71
2023-10-14T03:11:14.391Z,5.80
2023-10-14T03:12:16.782Z,5.87
2023-10-14T03:13:19.993Z,5.95
2023-10-14T03:14:22.104Z,6.03
2023-10-14T03:15:24.426Z,6.06
2023-10-14T03:16:26.500Z,6.10
2023-10-14T03:17:28.640Z,6.12
2023-10-14T03:18:30.605Z,6.18
2023-10-14T03:19:32.552Z,6.23
2023-10-14T03:20:37.069Z,6.28
2023-10-14T03:21:39.010Z,6.27
2023-10-14T03:22:40.995Z,6.34
2023-10-14T03:23:42.941Z,6.36
2023-10-14T03:24:45.601Z,6.37
2023-10-14T03:25:51.020Z,6.41
2023-10-14T03:26:53.381Z,6.43
2023-10-14T03:27:57.565Z,6.44
2023-10-14T03:29:00.264Z,6.44
2023-10-14T03:30:02.411Z,6.48
2023-10-14T03:31:05.579Z,6.49
2023-10-14T03:32:08.328Z,6.46
2023-10-14T03:33:15.224Z,6.51
2023-10-14T03:34:17.225Z,6.57
2023-10-14T03:35:19.184Z,6.60
2023-10-14T03:36:21.300Z,6.67
2023-10-14T03:37:23.193Z,6.71
2023-10-14T03:38:25.584Z,6.71
2023-10-14T03:39:28.040Z,6.75
2023-10-14T03:40:30.176Z,6.73
2023-10-14T03:41:32.119Z,6.76
2023-10-14T03:42:34.328Z,6.76
2023-10-14T03:43:38.530Z,6.85
2023-10-14T03:44:40.472Z,6.87
2023-10-14T03:45:43.106Z,6.80
2023-10-14T03:46:45.390Z,6.88
2023-10-14T03:47:47.996Z,6.84
2023-10-14T03:48:50.755Z,6.80
2023-10-14T03:49:52.775Z,6.88
2023-10-14T03:50:54.785Z,6.81
2023-10-14T03:51:56.720Z,6.82
2023-10-14T03:52:58.720Z,6.94
2023-10-14T03:54:01.756Z,6.86
2023-10-14T03:55:04.845Z,6.91
2023-10-14T03:56:07.472Z,7.01
2023-10-14T03:57:10.196Z,7.07
2023-10-14T03:58:12.666Z,7.14
2023-10-14T03:59:19.404Z,7.16
2023-10-14T04:00:26.971Z,7.21
2023-10-14T04:01:31.065Z,7.22
2023-10-14T04:02:33.223Z,7.31
2023-10-14T04:03:35.201Z,7.35
2023-10-14T04:04:37.280Z,7.39
2023-10-14T04:05:43.458Z,7.40
2023-10-14T04:06:49.451Z,7.42
2023-10-14T04:07:51.468Z,7.45
2023-10-14T04:08:53.595Z,7.37
2023-10-14T04:09:55.519Z,7.37
2023-10-14T04:10:58.104Z,7.42
2023-10-14T04:12:01.500Z,7.33
2023-10-14T04:13:05.096Z,7.37
2023-10-14T04:14:07.075Z,7.39
2023-10-14T04:15:10.460Z,7.37
2023-10-14T04:16:12.742Z,7.38
2023-10-14T04:17:14.736Z,7.42
2023-10-14T04:18:16.777Z,7.46
2023-10-14T04:19:18.769Z,7.50
2023-10-14T04:20:22.617Z,7.52
2023-10-14T04:21:24.609Z,7.56
2023-10-14T04:22:26.844Z,7.58
2023-10-14T04:23:29.640Z,7.59
2023-10-14T04:24:32.848Z,7.62
2023-10-14T04:25:34.752Z,7.65
2023-10-14T04:26:37.341Z,7.63
2023-10-14T04:27:41.280Z,7.66
2023-10-14T04:28:43.468Z,7.68
2023-10-14T04:29:45.516Z,7.73
2023-10-14T04:30:47.668Z,7.76
2023-10-14T04:31:49.988Z,7.77
2023-10-14T04:32:53.305Z,7.78
2023-10-14T04:33:55.643Z,7.79
2023-10-14T04:34:57.855Z,7.82
2023-10-14T04:36:00.029Z,7.82
2023-10-14T04:37:03.146Z,7.85
2023-10-14T04:38:05.344Z,7.86
2023-10-14T04:39:07.532Z,7.86
2023-10-14T04:40:10.950Z,7.87
2023-10-14T04:41:13.154Z,7.90
2023-10-14T04:42:16.016Z,7.95
2023-10-14T04:43:18.170Z,7.97
2023-10-14T04:44:20.357Z,8.05
2023-10-14T04:45:22.281Z,8.07
2023-10-14T04:46:24.758Z,8.11
2023-10-14T04:47:26.921Z,8.14
2023-10-14T04:48:38.706Z,8.15
2023-10-14T04:49:41.095Z,8.13
2023-10-14T04:50:44.052Z,8.16
2023-10-14T04:51:46.107Z,8.17
2023-10-14T04:52:48.252Z,8.19
2023-10-14T04:53:50.195Z,8.19
2023-10-14T04:54:52.750Z,8.21
2023-10-14T04:55:55.579Z,8.20
2023-10-14T04:56:58.023Z,8.26
2023-10-14T04:58:00.426Z,8.25
2023-10-14T04:59:02.780Z,8.25
2023-10-14T05:00:06.601Z,8.28
2023-10-14T05:01:10.188Z,8.30
2023-10-14T05:02:13.479Z,8.31
2023-10-14T05:03:17.404Z,8.35
2023-10-14T05:04:19.482Z,8.37
2023-10-14T05:05:21.610Z,8.36
2023-10-14T05:06:25.296Z,8.42
2023-10-14T05:07:27.758Z,8.46
2023-10-14T05:08:30.375Z,8.47
2023-10-14T05:09:32.550Z,8.52
2023-10-14T05:10:34.684Z,8.56
2023-10-14T05:11:36.694Z,8.56
2023-10-14T05:12:38.651Z,8.60
2023-10-14T05:13:41.702Z,8.63
2023-10-14T05:14:44.033Z,8.64
2023-10-14T05:15:47.071Z,8.66
2023-10-14T05:16:50.499Z,8.65
2023-10-14T05:17:54.166Z,8.66
2023-10-14T05:18:56.340Z,8.71
2023-10-14T05:19:58.417Z,8.77
2023-10-14T05:21:00.697Z,8.85
2023-10-14T05:22:03.893Z,8.93
2023-10-14T05:23:05.890Z,9.05
2023-10-14T05:24:09.598Z,9.10
2023-10-14T05:25:11.646Z,9.17
2023-10-14T05:26:13.974Z,9.20
2023-10-14T05:27:16.968Z,9.27
2023-10-14T05:28:18.930Z,9.40
2023-10-14T05:29:21.276Z,9.45
2023-10-14T05:30:26.140Z,9.51
2023-10-14T05:31:28.223Z,9.61
2023-10-14T05:32:30.494Z,9.61
2023-10-14T05:33:32.659Z,9.69
2023-10-14T05:34:34.711Z,9.76
2023-10-14T05:36:49.052Z,9.95
2023-10-14T05:37:51.101Z,10.00
2023-10-14T05:38:53.418Z,10.09
2023-10-14T05:39:56.893Z,10.20
2023-10-14T05:40:59.854Z,10.33
2023-10-14T05:42:02.071Z,10.38
2023-10-14T05:43:04.665Z,10.47
2023-10-14T05:44:06.840Z,10.50
2023-10-14T05:45:10.196Z,10.56
2023-10-14T05:46:12.354Z,10.66
2023-10-14T05:47:17.136Z,10.68
2023-10-14T05:48:21.289Z,10.73
2023-10-14T05:49:23.833Z,10.76
2023-10-14T05:50:26.391Z,10.83
2023-10-14T05:51:28.346Z,10.90
2023-10-14T05:52:30.513Z,10.92
2023-10-14T05:53:32.521Z,11.01
2023-10-14T05:54:35.495Z,11.05
2023-10-14T05:55:37.884Z,11.13
2023-10-14T05:56:40.087Z,11.20
2023-10-14T05:57:42.052Z,11.25
2023-10-14T05:58:45.150Z,11.28
2023-10-14T05:59:49.180Z,11.37
2023-10-14T06:00:51.276Z,11.43
2023-10-14T06:01:53.396Z,11.51
2023-10-14T06:02:59.602Z,11.55
2023-10-14T06:04:01.684Z,11.77
2023-10-14T06:05:04.816Z,11.83
2023-10-14T06:06:07.580Z,11.83
2023-10-14T06:07:10.838Z,11.91
2023-10-14T06:08:12.832Z,11.97
2023-10-14T06:09:15.113Z,12.07
2023-10-14T06:10:18.395Z,12.20
2023-10-14T06:11:20.382Z,12.34
2023-10-14T06:12:22.372Z,12.42
2023-10-14T06:13:28.874Z,12.48
2023-10-14T06:14:31.022Z,12.60
2023-10-14T06:15:41.560Z,12.61
2023-10-14T06:16:44.374Z,12.72
2023-10-14T06:17:48.696Z,12.85
2023-10-14T06:18:50.845Z,12.89
2023-10-14T06:19:52.988Z,13.04
2023-10-14T06:20:55.094Z,13.16
2023-10-14T06:21:57.662Z,13.18
2023-10-14T06:22:59.650Z,13.19
2023-10-14T06:24:01.583Z,13.28
2023-10-14T06:25:05.674Z,13.39
2023-10-14T06:26:09.360Z,13.54
2023-10-14T06:27:11.999Z,13.52
2023-10-14T06:28:15.378Z,13.63
2023-10-14T06:29:17.798Z,13.71
2023-10-14T06:30:20.518Z,13.78
2023-10-14T06:31:24.036Z,13.96
2023-10-14T06:32:26.273Z,14.14
2023-10-14T06:33:28.595Z,14.33
2023-10-14T06:34:32.058Z,14.32
2023-10-14T06:35:35.366Z,14.39
2023-10-14T06:36:38.362Z,14.46
2023-10-14T06:37:40.300Z,14.44
2023-10-14T06:38:44.419Z,14.41
2023-10-14T06:39:52.714Z,14.57
2023-10-14T06:40:57.856Z,14.56
2023-10-14T06:42:00.177Z,14.68
2023-10-14T06:43:04.853Z,14.79
2023-10-14T06:44:06.980Z,14.72
2023-10-14T06:45:08.919Z,14.82
2023-10-14T06:46:11.022Z,15.04
2023-10-14T06:47:14.448Z,15.10
2023-10-14T06:48:16.893Z,15.00
2023-10-14T06:49:18.986Z,14.97
2023-10-14T06:50:23.573Z,15.25
2023-10-14T06:51:26.075Z,15.15
2023-10-14T06:52:29.079Z,15.30
2023-10-14T06:53:31.178Z,15.09
2023-10-14T06:54:34.541Z,15.32
2023-10-14T06:55:37.606Z,15.19
2023-10-14T06:56:39.763Z,15.35
2023-10-14T06:57:41.871Z,15.46
2023-10-14T06:58:44.260Z,15.56
2023-10-14T06:59:46.329Z,15.63
2023-10-14T07:00:49.507Z,15.59
2023-10-14T07:01:52.402Z,15.68
2023-10-14T07:02:55.624Z,15.53
2023-10-14T07:03:58.431Z,15.17
2023-10-14T07:05:00.544Z,15.13
2023-10-14T07:06:02.756Z,15.24
2023-10-14T07:07:05.231Z,15.17
2023-10-14T07:08:07.232Z,15.19
2023-10-14T07:09:11.309Z,15.16
2023-10-14T07:10:14.548Z,15.05
2023-10-14T07:11:16.701Z,15.02
2023-10-14T07:12:18.850Z,14.97
2023-10-14T07:13:22.328Z,14.96
2023-10-14T07:14:24.689Z,14.95
2023-10-14T07:16:39.112Z,15.13
2023-10-14T07:17:42.832Z,15.04
2023-10-14T07:18:44.943Z,15.13
2023-10-14T07:19:47.486Z,15.34
2023-10-14T07:21:00.181Z,15.35
2023-10-14T07:22:02.295Z,15.14
2023-10-14T07:23:04.435Z,15.43
2023-10-14T07:24:07.909Z,15.47
2023-10-14T07:25:10.673Z,15.41
2023-10-14T07:26:14.301Z,15.47
2023-10-14T07:27:16.337Z,15.51
2023-10-14T07:28:18.579Z,15.59
2023-10-14T07:29:21.601Z,15.45
2023-10-14T07:30:24.008Z,15.35
2023-10-14T07:31:26.129Z,15.64
2023-10-14T07:32:28.313Z,15.58
2023-10-14T07:33:30.397Z,15.66
2023-10-14T07:34:33.606Z,15.68
2023-10-14T07:35:36.089Z,15.84
2023-10-14T07:36:38.303Z,15.68
2023-10-14T07:37:47.787Z,15.77
2023-10-14T07:38:49.870Z,15.79
2023-10-14T07:39:51.835Z,16.03
2023-10-14T07:40:57.103Z,16.02
2023-10-14T07:41:59.155Z,15.94
2023-10-14T07:43:05.771Z,15.99
2023-10-14T07:44:07.416Z,16.06
2023-10-14T07:45:10.344Z,15.87
2023-10-14T07:46:12.824Z,15.99
2023-10-14T07:47:14.973Z,16.07
2023-10-14T07:48:16.927Z,16.03
2023-10-14T07:49:20.155Z,16.10
2023-10-14T07:50:23.201Z,15.99
2023-10-14T07:51:30.258Z,16.13
2023-10-14T07:52:28.975Z,16.05
2023-10-14T07:53:30.956Z,16.22
2023-10-14T07:54:33.076Z,16.24
2023-10-14T07:55:40.329Z,16.29
2023-10-14T07:56:42.486Z,16.32
2023-10-14T07:57:44.405Z,16.55
2023-10-14T07:58:46.356Z,16.59
2023-10-14T07:59:48.582Z,16.66
2023-10-14T08:00:53.242Z,16.72
2023-10-14T08:01:55.329Z,16.90
2023-10-14T08:02:57.477Z,16.78
2023-10-14T08:03:59.678Z,16.58
2023-10-14T08:05:02.277Z,16.64
2023-10-14T08:06:08.217Z,16.71
2023-10-14T08:07:10.332Z,16.78
2023-10-14T08:08:12.709Z,16.99
2023-10-14T08:09:14.833Z,17.00
2023-10-14T08:10:18.738Z,17.15
2023-10-14T08:11:22.386Z,17.15
2023-10-14T08:12:24.645Z,17.08
2023-10-14T08:13:28.362Z,17.01
2023-10-14T08:14:30.356Z,17.17
2023-10-14T08:15:33.070Z,17.11
2023-10-14T08:16:35.385Z,17.13
2023-10-14T08:17:37.551Z,17.18
2023-10-14T08:18:40.181Z,17.18
2023-10-14T08:19:42.272Z,17.27
2023-10-14T08:20:44.603Z,17.25
2023-10-14T08:21:46.540Z,17.36
2023-10-14T08:22:48.738Z,17.44
2023-10-14T08:23:50.814Z,17.46
2023-10-14T08:24:52.755Z,17.58
2023-10-14T08:25:55.667Z,17.47
2023-10-14T08:26:58.270Z,17.54
2023-10-14T08:28:01.228Z,17.49
2023-10-14T08:29:06.305Z,17.39
2023-10-14T08:30:11.056Z,17.50
2023-10-14T08:31:18.057Z,17.61
2023-10-14T08:32:20.244Z,17.43
2023-10-14T08:33:24.344Z,17.53
2023-10-14T08:34:26.441Z,17.62
2023-10-14T08:35:28.919Z,17.68
2023-10-14T08:36:31.089Z,17.74
2023-10-14T08:37:33.146Z,17.74
2023-10-14T08:38:35.224Z,17.78
2023-10-14T08:39:37.365Z,17.91
2023-10-14T08:40:41.294Z,17.88
2023-10-14T08:41:47.170Z,17.73
2023-10-14T08:42:52.634Z,17.76
2023-10-14T08:43:58.524Z,17.65
2023-10-14T08:45:02.234Z,17.67
2023-10-14T08:46:05.598Z,17.72
2023-10-14T08:47:11.202Z,17.76
2023-10-14T08:48:13.012Z,17.78
2023-10-14T08:49:17.366Z,17.88
2023-10-14T08:50:23.167Z,17.87
2023-10-14T08:51:39.228Z,17.80
2023-10-14T08:52:31.583Z,17.93
2023-10-14T08:53:33.821Z,18.00
2023-10-14T08:54:37.818Z,18.09
2023-10-14T08:55:42.126Z,18.16
2023-10-14T08:56:47.818Z,18.20
2023-10-14T08:57:51.689Z,18.29
2023-10-14T08:58:53.907Z,18.30
2023-10-14T08:59:56.000Z,18.25
2023-10-14T09:00:58.934Z,18.34
2023-10-14T09:02:03.044Z,18.37
2023-10-14T09:03:09.116Z,18.38
2023-10-14T09:04:11.765Z,18.38
2023-10-14T09:05:14.128Z,18.23
2023-10-14T09:06:17.923Z,18.28
2023-10-14T09:07:21.963Z,18.31
2023-10-14T09:08:24.189Z,18.42
2023-10-14T09:09:26.483Z,18.30
2023-10-14T09:10:29.460Z,18.34
2023-10-14T09:11:32.110Z,18.33
2023-10-14T09:12:34.148Z,18.34
2023-10-14T09:13:36.692Z,18.36
2023-10-14T09:14:39.585Z,18.34
2023-10-14T09:15:43.153Z,18.32
2023-10-14T09:16:49.999Z,18.33
2023-10-14T09:17:52.489Z,18.32
2023-10-14T09:18:59.207Z,18.41
2023-10-14T09:20:01.350Z,18.43
2023-10-14T09:21:04.963Z,18.48
2023-10-14T09:22:07.629Z,18.43
2023-10-14T09:23:28.470Z,18.46
2023-10-14T09:24:32.022Z,18.55
2023-10-14T09:25:36.191Z,18.55
2023-10-14T09:26:41.639Z,18.59
2023-10-14T09:27:47.905Z,18.66
2023-10-14T09:28:51.845Z,18.63
2023-10-14T09:29:53.978Z,18.71
2023-10-14T09:30:59.176Z,18.59
2023-10-14T09:32:01.465Z,18.56
2023-10-14T09:33:05.261Z,18.48
2023-10-14T09:34:07.277Z,18.47
2023-10-14T09:35:09.278Z,18.52
2023-10-14T09:36:16.531Z,18.59
2023-10-14T09:37:19.299Z,18.62
2023-10-14T09:38:23.871Z,18.64
2023-10-14T09:39:26.080Z,18.62
2023-10-14T09:40:28.317Z,18.69
2023-10-14T09:41:30.642Z,18.75
2023-10-14T09:42:33.524Z,18.79
2023-10-14T09:43:38.803Z,18.88
2023-10-14T09:44:43.010Z,18.92
2023-10-14T09:45:50.377Z,18.99
2023-10-14T09:46:52.804Z,19.06
2023-10-14T09:47:56.592Z,19.10
2023-10-14T09:48:59.846Z,19.12
2023-10-14T09:50:02.848Z,19.17
2023-10-14T09:51:07.068Z,19.22
2023-10-14T09:52:11.705Z,19.18
2023-10-14T09:53:15.515Z,19.26
2023-10-14T09:54:18.362Z,19.24
2023-10-14T09:55:24.195Z,19.26
2023-10-14T09:56:40.930Z,19.35
2023-10-14T09:57:34.244Z,19.38
2023-10-14T09:59:50.838Z,19.43
2023-10-14T10:00:53.684Z,19.42
2023-10-14T10:01:55.754Z,19.42
2023-10-14T10:02:58.882Z,19.42
2023-10-14T10:04:04.658Z,19.47
2023-10-14T10:05:08.664Z,19.50
2023-10-14T10:06:17.580Z,19.51
2023-10-14T10:07:52.326Z,19.56
2023-10-14T10:09:03.763Z,19.53
2023-10-14T10:10:20.021Z,19.45
2023-10-14T10:11:23.824Z,19.40
2023-10-14T10:12:29.648Z,19.28
2023-10-14T10:13:32.238Z,19.40
2023-10-14T10:14:40.554Z,18.92
2023-10-14T10:15:42.864Z,19.48
2023-10-14T10:16:54.242Z,19.51
2023-10-14T10:17:59.499Z,19.55
2023-10-14T10:19:01.665Z,19.65
2023-10-14T10:20:08.968Z,19.69
2023-10-14T10:21:11.951Z,19.73
2023-10-14T10:22:18.168Z,19.71
2023-10-14T10:23:22.745Z,19.76
2023-10-14T10:24:33.552Z,19.65
2023-10-14T10:25:42.053Z,19.63
2023-10-14T10:26:58.768Z,19.72
2023-10-14T10:28:21.236Z,19.76
2023-10-14T10:29:26.037Z,19.85
2023-10-14T10:30:28.557Z,19.93
2023-10-14T10:31:31.514Z,19.95
2023-10-14T10:32:35.036Z,20.04
2023-10-14T10:33:55.252Z,20.11
2023-10-14T10:35:14.048Z,20.06
2023-10-14T10:37:52.507Z,20.03
2023-10-14T10:38:56.447Z,20.03
2023-10-14T10:39:59.161Z,20.03
2023-10-14T10:41:19.482Z,19.99
2023-10-14T10:42:21.682Z,19.90
2023-10-14T10:43:23.930Z,19.77
2023-10-14T10:44:26.422Z,19.78
2023-10-14T10:45:32.559Z,19.73
2023-10-14T10:46:38.733Z,19.71
2023-10-14T10:47:51.430Z,19.67
2023-10-14T10:48:54.260Z,19.72
2023-10-14T10:49:59.198Z,19.65
2023-10-14T10:51:02.342Z,19.68
2023-10-14T10:52:11.671Z,19.72
2023-10-14T10:53:16.388Z,19.69
2023-10-14T10:54:18.556Z,19.62
2023-10-14T10:55:22.842Z,19.59
2023-10-14T10:56:27.625Z,19.69
2023-10-14T10:57:30.504Z,19.74
2023-10-14T10:58:33.000Z,19.75
2023-10-14T10:59:36.380Z,19.83
2023-10-14T11:00:41.007Z,19.93
2023-10-14T11:01:43.462Z,19.93
2023-10-14T11:02:45.621Z,20.10
2023-10-14T11:03:47.837Z,20.14
2023-10-14T11:04:50.604Z,20.19
2023-10-14T11:05:52.910Z,20.29
2023-10-14T11:06:55.147Z,20.29
2023-10-14T11:07:58.082Z,20.28
2023-10-14T11:09:01.788Z,20.31
2023-10-14T11:10:04.956Z,20.40
2023-10-14T11:12:18.583Z,20.60
2023-10-14T11:13:20.569Z,20.51
2023-10-14T11:14:25.624Z,20.60
2023-10-14T11:15:29.884Z,20.72
2023-10-14T11:16:32.065Z,20.80
2023-10-14T11:17:37.256Z,20.76
2023-10-14T11:20:01.549Z,21.01
2023-10-14T11:21:04.417Z,20.81
2023-10-14T11:23:31.913Z,20.68
2023-10-14T11:25:51.844Z,20.73
2023-10-14T11:26:56.372Z,20.61
2023-10-14T11:28:02.090Z,20.64
2023-10-14T11:29:06.128Z,20.62
2023-10-14T11:30:13.809Z,20.61
2023-10-14T11:31:20.728Z,20.67
2023-10-14T11:32:23.434Z,20.67
2023-10-14T11:33:26.424Z,20.70
2023-10-14T11:34:35.594Z,20.67
2023-10-14T11:35:37.931Z,20.56
2023-10-14T11:36:47.525Z,20.53
2023-10-14T11:37:58.343Z,20.51
2023-10-14T11:38:57.640Z,20.54
2023-10-14T11:41:16.926Z,20.66
2023-10-14T11:42:21.479Z,20.54
2023-10-14T11:43:25.298Z,20.55
2023-10-14T11:44:29.394Z,20.54
2023-10-14T11:45:36.555Z,20.56
2023-10-14T11:46:40.637Z,20.50
2023-10-14T11:47:42.785Z,20.46
2023-10-14T11:48:47.123Z,20.51
2023-10-14T11:49:49.241Z,20.60
2023-10-14T11:51:06.805Z,20.65
2023-10-14T11:52:12.036Z,20.79
2023-10-14T11:53:20.448Z,20.88
2023-10-14T11:54:24.318Z,20.96
2023-10-14T11:55:28.351Z,20.94
2023-10-14T11:56:34.133Z,20.97
2023-10-14T11:57:40.027Z,20.96
2023-10-14T11:58:42.118Z,21.01
2023-10-14T11:59:47.718Z,20.99
2023-10-14T12:00:53.019Z,20.95
2023-10-14T12:01:57.369Z,20.81
2023-10-14T12:03:01.545Z,20.88
2023-10-14T12:04:04.954Z,20.80
2023-10-14T12:05:10.825Z,20.82
2023-10-14T12:06:14.706Z,20.78
2023-10-14T12:07:22.684Z,20.74
2023-10-14T12:08:33.531Z,20.60
2023-10-14T12:09:35.619Z,20.76
2023-10-14T12:10:37.769Z,20.70
2023-10-14T12:11:45.850Z,20.67
2023-10-14T12:12:47.946Z,20.67
2023-10-14T12:13:51.642Z,20.67
2023-10-14T12:14:53.758Z,20.73
2023-10-14T12:15:58.948Z,20.81
2023-10-14T12:17:12.760Z,20.83
2023-10-14T12:18:18.373Z,20.86
2023-10-14T12:19:23.470Z,20.82
2023-10-14T12:20:28.213Z,20.84
2023-10-14T12:21:30.263Z,20.82
2023-10-14T12:22:34.156Z,20.83
2023-10-14T12:23:38.028Z,20.78
2023-10-14T12:24:40.638Z,20.48
2023-10-14T12:25:42.539Z,20.79
2023-10-14T12:26:44.657Z,20.74
2023-10-14T12:27:47.414Z,20.74
2023-10-14T12:28:51.440Z,20.78
2023-10-14T12:29:56.406Z,20.79
2023-10-14T12:31:02.683Z,20.79
2023-10-14T12:32:17.962Z,20.73
2023-10-14T12:33:11.338Z,20.76
2023-10-14T12:34:20.464Z,20.69
2023-10-14T12:35:22.571Z,20.74
2023-10-14T12:36:30.265Z,20.73
2023-10-14T12:37:30.002Z,20.72
2023-10-14T12:38:32.468Z,20.71
2023-10-14T12:39:36.706Z,20.76
2023-10-14T12:40:39.106Z,20.80
2023-10-14T12:41:41.110Z,20.77
2023-10-14T12:42:43.030Z,20.81
2023-10-14T12:43:45.239Z,20.76
2023-10-14T12:44:47.521Z,20.72
2023-10-14T12:45:49.708Z,20.72
2023-10-14T12:46:51.977Z,20.74
2023-10-14T12:47:54.506Z,20.79
2023-10-14T12:48:56.567Z,20.73
2023-10-14T12:50:01.189Z,20.73
2023-10-14T12:51:02.904Z,20.70
2023-10-14T12:52:07.442Z,20.69
2023-10-14T12:53:09.784Z,20.65
2023-10-14T12:54:15.930Z,20.70
2023-10-14T12:55:18.407Z,20.72
2023-10-14T12:56:20.936Z,20.71
2023-10-14T12:57:23.049Z,20.67
2023-10-14T12:58:25.869Z,20.74
2023-10-14T12:59:27.995Z,20.70
2023-10-14T13:00:31.072Z,20.66
2023-10-14T13:01:35.027Z,20.65
2023-10-14T13:02:38.211Z,20.65
2023-10-14T13:03:40.446Z,20.68
2023-10-14T13:04:42.655Z,20.68
2023-10-14T13:05:45.022Z,20.68
2023-10-14T13:06:47.607Z,20.67
2023-10-14T13:07:50.318Z,20.72
2023-10-14T13:08:57.082Z,20.75
2023-10-14T13:09:59.706Z,20.68
2023-10-14T13:11:02.349Z,20.69
2023-10-14T13:12:06.037Z,20.71
2023-10-14T13:13:08.042Z,20.70
2023-10-14T13:14:11.927Z,20.68
2023-10-14T13:15:17.336Z,20.73
2023-10-14T13:16:21.293Z,20.76
2023-10-14T13:17:25.083Z,20.74
2023-10-14T13:18:27.602Z,20.66
2023-10-14T13:19:32.449Z,20.69
2023-10-14T13:20:36.117Z,20.67
2023-10-14T13:21:38.202Z,20.63
2023-10-14T13:22:40.189Z,20.66
2023-10-14T13:23:44.828Z,20.67
2023-10-14T13:24:46.778Z,20.41
2023-10-14T13:25:48.763Z,20.67
2023-10-14T13:26:50.784Z,20.70
2023-10-14T13:27:53.693Z,20.70
2023-10-14T13:28:55.727Z,20.67
2023-10-14T13:29:57.652Z,20.63
2023-10-14T13:30:59.939Z,20.67
2023-10-14T13:32:02.262Z,20.66
2023-10-14T13:33:05.177Z,20.70
2023-10-14T13:34:07.200Z,20.67
2023-10-14T13:35:09.413Z,20.67
2023-10-14T13:36:12.070Z,20.68
2023-10-14T13:37:14.817Z,20.68
2023-10-14T13:38:16.840Z,20.65
2023-10-14T13:39:18.768Z,20.64
2023-10-14T13:40:37.547Z,20.63
2023-10-14T13:41:26.020Z,20.59
2023-10-14T13:42:27.966Z,20.64
2023-10-14T13:43:29.925Z,20.64
2023-10-14T13:44:31.907Z,20.71
2023-10-14T13:45:33.818Z,20.68
2023-10-14T13:46:35.983Z,20.69
2023-10-14T13:47:38.571Z,20.68
2023-10-14T13:48:40.758Z,20.72
2023-10-14T13:49:42.976Z,20.76
2023-10-14T13:50:45.082Z,20.77
2023-10-14T13:51:48.283Z,20.73
2023-10-14T13:52:51.602Z,20.76
2023-10-14T13:53:53.531Z,20.79
2023-10-14T13:54:55.461Z,20.79
2023-10-14T13:55:58.042Z,20.80
2023-10-14T13:57:00.291Z,20.78
2023-10-14T13:58:02.304Z,20.73
2023-10-14T13:59:04.375Z,20.72
2023-10-14T14:00:07.815Z,20.67
2023-10-14T14:01:09.810Z,20.64